Time;durP1;ratioP1;P1;durP2;ratioP2;P2;SDS_P1;SDS_P2;PMS_P1;PMS_P2;Temp;Humidity;BMP_temperature;BMP_pressure;BME280_temperature;BME280_humidity;BME280_pressure;Samples;Min_cycle;Max_cycle;Signal;HPM_P1;HPM_P2
2023/06/02 00:01:23;;;;;;;13.93;3.55;;;;;;;;;;4848681;28;20580;-72
2023/06/02 00:03:49;;;;;;;14.73;3.78;;;;;;;;;;4848254;28;20045;-72
2023/06/02 00:06:14;;;;;;;12.80;2.97;;;;;;;;;;4871686;28;20131;-71
2023/06/02 00:08:40;;;;;;;13.15;3.38;;;;;;;;;;4859373;28;20882;-73
2023/06/02 00:11:09;;;;;;;13.95;3.38;;;;;;;;;;4863877;29;20036;-72
2023/06/02 00:13:34;;;;;;;14.20;3.50;;;;;;;;;;4862290;28;20052;-67
2023/06/02 00:16:00;;;;;;;11.73;3.15;;;;;;;;;;4869290;28;20036;-70
2023/06/02 00:18:26;;;;;;;10.38;2.80;;;;;;;;;;4858170;28;20072;-70
2023/06/02 00:20:51;;;;;;;9.07;3.03;;;;;;;;;;4855723;28;20811;-71
2023/06/02 00:23:17;;;;;;;11.27;3.22;;;;;;;;;;4853353;28;20050;-72
2023/06/02 00:25:42;;;;;;;7.68;2.75;;;;;;;;;;4851108;28;20068;-72
2023/06/02 00:28:10;;;;;;;14.38;2.88;;;;;;;;;;4851914;28;20390;-72
2023/06/02 00:30:36;;;;;;;11.90;2.75;;;;;;;;;;4853964;28;20044;-71
2023/06/02 00:33:01;;;;;;;8.75;2.67;;;;;;;;;;4854609;28;20032;-73
2023/06/02 00:35:27;;;;;;;12.20;2.70;;;;;;;;;;4847237;29;20743;-73
2023/06/02 00:37:54;;;;;;;7.75;2.60;;;;;;;;;;4931535;28;20044;-74
2023/06/02 00:40:22;;;;;;;7.28;2.60;;;;;;;;;;4852083;28;20067;-74
2023/06/02 00:42:50;;;;;;;12.35;2.80;;;;;;;;;;4855205;28;20610;-71
2023/06/02 00:45:16;;;;;;;10.63;2.55;;;;;;;;;;4859275;28;20146;-73
2023/06/02 00:47:41;;;;;;;11.32;2.65;;;;;;;;;;4858707;28;20788;-73
2023/06/02 00:50:07;;;;;;;13.05;2.78;;;;;;;;;;4872617;28;20626;-74
2023/06/02 00:52:33;;;;;;;9.70;2.50;;;;;;;;;;4856481;28;20064;-73
2023/06/02 00:54:58;;;;;;;13.55;3.30;;;;;;;;;;4855560;29;20143;-72
2023/06/02 00:57:28;;;;;;;11.38;2.53;;;;;;;;;;4853728;28;20032;-73
2023/06/02 00:59:55;;;;;;;15.15;3.17;;;;;;;;;;4859770;28;20253;-72
2023/06/02 01:02:21;;;;;;;15.93;2.78;;;;;;;;;;4861649;28;20098;-73
2023/06/02 01:04:47;;;;;;;13.38;2.92;;;;;;;;;;4858675;29;20033;-72
2023/06/02 01:07:22;;;;;;;10.10;3.50;;;;;;;;;;4859654;29;20033;-73
2023/06/02 01:09:51;;;;;;;13.57;2.55;;;;;;;;;;4873952;28;21144;-72
2023/06/02 01:12:19;;;;;;;15.15;2.53;;;;;;;;;;4853967;28;20580;-72
2023/06/02 01:14:45;;;;;;;12.95;2.78;;;;;;;;;;4862172;28;20041;-74
2023/06/02 01:17:13;;;;;;;11.35;2.55;;;;;;;;;;4858183;28;20828;-73
2023/06/02 01:19:40;;;;;;;11.35;2.50;;;;;;;;;;4872729;28;20037;-73
2023/06/02 01:22:08;;;;;;;13.38;2.72;;;;;;;;;;4859359;28;20048;-72
2023/06/02 01:24:37;;;;;;;15.30;2.90;;;;;;;;;;4872232;28;20045;-73
2023/06/02 01:27:09;;;;;;;13.70;3.17;;;;;;;;;;4855603;28;20995;-73
2023/06/02 01:29:35;;;;;;;;;;;;;;;;;;4854934;28;20036;-72
2023/06/02 01:32:04;;;;;;;19.08;2.97;;;;;;;;;;4869612;28;19985;-71
2023/06/02 01:34:37;;;;;;;12.65;2.80;;;;;;;;;;4856226;29;20059;-72
2023/06/02 01:37:03;;;;;;;11.77;2.83;;;;;;;;;;4855853;29;20844;-73
2023/06/02 01:39:29;;;;;;;13.07;3.20;;;;;;;;;;4856230;28;20049;-69
2023/06/02 01:41:55;;;;;;;13.45;2.95;;;;;;;;;;4859921;28;20048;-72
2023/06/02 01:44:23;;;;;;;14.95;2.65;;;;;;;;;;4878309;28;20045;-74
2023/06/02 01:46:48;;;;;;;12.10;2.67;;;;;;;;;;4861860;28;20162;-73
2023/06/02 01:49:16;;;;;;;15.25;2.78;;;;;;;;;;4863014;28;20598;-74
2023/06/02 01:51:44;;;;;;;11.73;2.60;;;;;;;;;;4862104;28;20045;-73
2023/06/02 01:54:10;;;;;;;9.75;2.40;;;;;;;;;;4864250;28;20028;-72
2023/06/02 01:56:38;;;;;;;14.38;3.30;;;;;;;;;;4863595;28;20585;-72
2023/06/02 01:59:03;;;;;;;14.50;2.72;;;;;;;;;;4879231;28;20052;-71
2023/06/02 02:01:29;;;;;;;13.10;2.50;;;;;;;;;;4863041;28;20059;-72
2023/06/02 02:03:54;;;;;;;12.73;2.95;;;;;;;;;;4860638;28;20130;-72
2023/06/02 02:06:24;;;;;;;12.00;2.72;;;;;;;;;;4862322;28;20140;-72
2023/06/02 02:08:50;;;;;;;13.15;2.88;;;;;;;;;;4877927;28;20115;-70
2023/06/02 02:11:17;;;;;;;10.90;2.92;;;;;;;;;;4862473;28;20090;-71
2023/06/02 02:13:43;;;;;;;13.23;3.17;;;;;;;;;;4863057;28;20517;-72
2023/06/02 02:16:10;;;;;;;11.07;2.65;;;;;;;;;;4863560;28;20056;-70
2023/06/02 02:18:35;;;;;;;12.68;2.53;;;;;;;;;;4878715;28;20426;-71
2023/06/02 02:21:00;;;;;;;12.32;2.78;;;;;;;;;;4864062;28;20045;-70
2023/06/02 02:23:26;;;;;;;11.55;2.20;;;;;;;;;;4863293;28;20136;-71
2023/06/02 02:25:54;;;;;;;15.90;3.25;;;;;;;;;;4864165;28;20095;-71
2023/06/02 02:28:22;;;;;;;11.80;3.70;;;;;;;;;;4862919;28;20144;-71
2023/06/02 02:30:47;;;;;;;9.70;2.50;;;;;;;;;;4863761;28;20045;-71
2023/06/02 02:33:13;;;;;;;14.48;2.85;;;;;;;;;;4862759;28;20040;-71
2023/06/02 02:35:38;;;;;;;12.50;2.67;;;;;;;;;;4862845;28;20045;-70
2023/06/02 02:38:04;;;;;;;10.55;2.67;;;;;;;;;;4878594;28;20131;-71
2023/06/02 02:40:29;;;;;;;9.57;2.42;;;;;;;;;;4862843;28;20060;-71
2023/06/02 02:42:55;;;;;;;10.45;2.30;;;;;;;;;;4862544;28;20072;-71
2023/06/02 02:45:20;;;;;;;12.57;2.42;;;;;;;;;;4861597;28;20526;-71
2023/06/02 02:47:50;;;;;;;12.20;2.40;;;;;;;;;;4861469;28;20083;-71
2023/06/02 02:50:17;;;;;;;18.05;3.13;;;;;;;;;;4862102;29;20995;-71
2023/06/02 02:52:43;;;;;;;8.05;2.55;;;;;;;;;;4863893;28;20600;-72
2023/06/02 02:55:08;;;;;;;11.30;2.70;;;;;;;;;;4864661;28;20040;-72
2023/06/02 02:57:36;;;;;;;12.75;2.90;;;;;;;;;;4864634;28;20072;-72
2023/06/02 03:00:04;;;;;;;12.68;2.72;;;;;;;;;;4864518;28;20045;-73
2023/06/02 03:02:30;;;;;;;13.45;2.83;;;;;;;;;;4865715;28;20071;-72
2023/06/02 03:04:56;;;;;;;14.70;2.58;;;;;;;;;;4865794;28;20037;-73
2023/06/02 03:07:24;;;;;;;18.35;3.60;;;;;;;;;;4864049;28;20639;-73
2023/06/02 03:09:49;;;;;;;15.50;2.70;;;;;;;;;;4866584;29;20043;-71
2023/06/02 03:12:15;;;;;;;15.27;3.20;;;;;;;;;;4865240;28;20552;-72
2023/06/02 03:14:40;;;;;;;17.08;3.65;;;;;;;;;;4879108;28;20090;-72
2023/06/02 03:17:05;;;;;;;11.85;2.67;;;;;;;;;;4865612;28;20103;-72
2023/06/02 03:19:31;;;;;;;17.10;3.05;;;;;;;;;;4865781;28;20076;-72
2023/06/02 03:21:59;;;;;;;14.45;2.55;;;;;;;;;;4867563;28;20641;-72
2023/06/02 03:24:24;;;;;;;11.00;2.72;;;;;;;;;;4868936;28;20147;-72
2023/06/02 03:26:51;;;;;;;11.85;2.97;;;;;;;;;;4867612;28;20498;-72
2023/06/02 03:29:19;;;;;;;13.50;3.22;;;;;;;;;;4866196;28;20046;-70
2023/06/02 03:31:45;;;;;;;12.73;2.90;;;;;;;;;;4866360;28;20044;-73
2023/06/02 03:34:10;;;;;;;12.98;2.70;;;;;;;;;;4865919;28;20055;-71
2023/06/02 03:36:36;;;;;;;13.90;3.38;;;;;;;;;;4879729;28;20037;-71
2023/06/02 03:39:06;;;;;;;11.20;2.90;;;;;;;;;;4865362;28;20056;-71
2023/06/02 03:41:31;;;;;;;15.73;3.22;;;;;;;;;;4863172;28;20967;-72
2023/06/02 03:43:57;;;;;;;13.57;3.00;;;;;;;;;;4866393;28;20041;-71
2023/06/02 03:46:22;;;;;;;12.35;2.67;;;;;;;;;;4864416;28;20044;-71
2023/06/02 03:48:47;;;;;;;11.15;2.63;;;;;;;;;;4865828;28;20045;-70
2023/06/02 03:51:16;;;;;;;17.98;3.35;;;;;;;;;;4878540;28;20033;-70
2023/06/02 03:53:41;;;;;;;14.80;2.85;;;;;;;;;;4863647;28;22344;-74
2023/06/02 03:56:06;;;;;;;13.05;2.95;;;;;;;;;;4864961;28;20043;-73
2023/06/02 03:58:31;;;;;;;11.63;2.40;;;;;;;;;;4866153;29;20128;-73
2023/06/02 04:00:58;;;;;;;10.00;2.40;;;;;;;;;;4864169;28;20124;-73
2023/06/02 04:03:23;;;;;;;16.73;3.25;;;;;;;;;;4866570;28;20045;-73
2023/06/02 04:05:49;;;;;;;11.43;2.92;;;;;;;;;;4863769;28;20072;-72
2023/06/02 04:08:16;;;;;;;15.43;2.95;;;;;;;;;;4880760;28;20478;-72
2023/06/02 04:10:44;;;;;;;13.05;2.75;;;;;;;;;;4864051;28;20755;-72
2023/06/02 04:13:11;;;;;;;15.35;2.65;;;;;;;;;;4866731;28;20040;-68
2023/06/02 04:15:37;;;;;;;11.95;3.13;;;;;;;;;;4864392;28;20055;-73
2023/06/02 04:18:03;;;;;;;18.40;3.10;;;;;;;;;;4863952;28;20063;-72
2023/06/02 04:20:28;;;;;;;15.32;3.10;;;;;;;;;;4866255;28;20048;-71
2023/06/02 04:22:54;;;;;;;16.17;2.95;;;;;;;;;;4879669;28;20152;-72
2023/06/02 04:25:19;;;;;;;15.93;2.80;;;;;;;;;;4879506;28;20111;-72
2023/06/02 04:27:44;;;;;;;18.67;2.90;;;;;;;;;;4862777;28;20044;-72
2023/06/02 04:30:11;;;;;;;14.13;3.10;;;;;;;;;;4879750;28;20075;-72
2023/06/02 04:32:37;;;;;;;11.73;2.60;;;;;;;;;;4878460;28;20461;-71
2023/06/02 04:35:05;;;;;;;14.75;2.90;;;;;;;;;;4863438;28;20128;-72
2023/06/02 04:37:32;;;;;;;13.15;2.40;;;;;;;;;;4864122;28;20555;-72
2023/06/02 04:40:01;;;;;;;14.82;3.10;;;;;;;;;;4863607;28;20048;-72
2023/06/02 04:42:26;;;;;;;19.25;3.03;;;;;;;;;;4863979;28;20048;-71
2023/06/02 04:44:52;;;;;;;12.60;3.10;;;;;;;;;;4865284;28;20064;-72
2023/06/02 04:47:17;;;;;;;14.65;3.67;;;;;;;;;;4878196;28;20061;-74
2023/06/02 04:49:42;;;;;;;16.50;2.92;;;;;;;;;;4864009;28;20041;-72
2023/06/02 04:52:08;;;;;;;14.80;2.95;;;;;;;;;;4863916;28;20041;-72
2023/06/02 04:54:33;;;;;;;20.65;3.10;;;;;;;;;;4925232;28;20846;-72
2023/06/02 04:57:04;;;;;;;16.85;2.72;;;;;;;;;;4875362;28;20044;-72
2023/06/02 04:59:33;;;;;;;16.00;3.45;;;;;;;;;;4863511;28;20098;-72
2023/06/02 05:01:58;;;;;;;13.60;3.50;;;;;;;;;;4866162;28;20835;-73
2023/06/02 05:04:26;;;;;;;18.02;3.63;;;;;;;;;;4864471;28;20041;-72
2023/06/02 05:06:52;;;;;;;19.60;2.78;;;;;;;;;;4865184;28;20044;-73
2023/06/02 05:09:18;;;;;;;17.98;3.28;;;;;;;;;;4861656;28;20045;-71
2023/06/02 05:11:43;;;;;;;19.30;3.20;;;;;;;;;;4864523;28;20067;-74
2023/06/02 05:14:08;;;;;;;15.82;3.25;;;;;;;;;;4864368;28;20095;-71
2023/06/02 05:16:35;;;;;;;14.98;3.10;;;;;;;;;;4862842;28;20055;-72
2023/06/02 05:19:03;;;;;;;13.27;2.72;;;;;;;;;;4862999;28;20146;-69
2023/06/02 05:21:29;;;;;;;19.08;2.80;;;;;;;;;;4878098;28;20714;-68
2023/06/02 05:23:55;;;;;;;15.68;2.85;;;;;;;;;;4862481;28;20072;-69
2023/06/02 05:26:20;;;;;;;20.38;3.35;;;;;;;;;;4862507;28;20079;-71
2023/06/02 05:28:48;;;;;;;20.55;3.42;;;;;;;;;;4862432;28;20119;-70
2023/06/02 05:31:14;;;;;;;15.30;3.10;;;;;;;;;;4860681;28;20045;-70
2023/06/02 05:33:39;;;;;;;12.77;3.03;;;;;;;;;;4865025;28;20556;-68
2023/06/02 05:36:05;;;;;;;12.75;2.67;;;;;;;;;;4861952;28;20045;-68
2023/06/02 05:38:30;;;;;;;13.35;2.45;;;;;;;;;;4876600;28;20541;-69
2023/06/02 05:40:59;;;;;;;15.80;3.00;;;;;;;;;;4873757;28;20052;-69
2023/06/02 05:43:27;;;;;;;18.55;2.90;;;;;;;;;;4860489;28;20113;-69
2023/06/02 05:45:54;;;;;;;13.23;2.72;;;;;;;;;;4862660;28;20060;-68
2023/06/02 05:48:20;;;;;;;17.17;2.83;;;;;;;;;;4862780;28;20041;-69
2023/06/02 05:50:45;;;;;;;16.95;3.00;;;;;;;;;;4876240;28;20095;-68
2023/06/02 05:53:10;;;;;;;15.82;2.70;;;;;;;;;;4862664;28;20137;-68
2023/06/02 05:55:36;;;;;;;15.27;3.00;;;;;;;;;;4860819;28;21095;-68
2023/06/02 05:58:02;;;;;;;12.55;2.53;;;;;;;;;;4862210;28;20059;-68
2023/06/02 06:00:27;;;;;;;14.20;2.88;;;;;;;;;;4863049;28;20045;-67
2023/06/02 06:02:52;;;;;;;15.25;2.85;;;;;;;;;;4861276;28;20041;-68
2023/06/02 06:05:20;;;;;;;16.40;2.90;;;;;;;;;;4862721;28;20041;-68
2023/06/02 06:07:45;;;;;;;17.00;2.75;;;;;;;;;;4861478;28;20044;-68
2023/06/02 06:10:11;;;;;;;17.33;3.13;;;;;;;;;;4859269;28;20032;-68
2023/06/02 06:12:36;;;;;;;13.50;2.92;;;;;;;;;;4860733;28;20040;-68
2023/06/02 06:15:01;;;;;;;18.10;3.20;;;;;;;;;;4860966;28;20041;-69
2023/06/02 06:17:27;;;;;;;14.23;3.03;;;;;;;;;;4873870;28;20040;-68
2023/06/02 06:19:52;;;;;;;11.65;3.17;;;;;;;;;;4836786;28;20046;-68
2023/06/02 06:22:17;;;;;;;10.32;2.85;;;;;;;;;;4860026;28;20051;-67
2023/06/02 06:24:43;;;;;;;13.55;2.55;;;;;;;;;;4937312;28;20063;-67
2023/06/02 06:27:08;;;;;;;14.57;2.97;;;;;;;;;;4872801;28;20329;-67
2023/06/02 06:29:34;;;;;;;19.92;2.97;;;;;;;;;;4846698;28;21022;-67
2023/06/02 06:31:59;;;;;;;16.85;3.20;;;;;;;;;;4917363;28;20048;-68
2023/06/02 06:34:25;;;;;;;16.90;2.63;;;;;;;;;;4848248;28;20402;-67
2023/06/02 06:36:51;;;;;;;13.75;3.00;;;;;;;;;;4878514;28;20040;-68
2023/06/02 06:39:16;;;;;;;16.77;2.97;;;;;;;;;;4847770;28;20475;-68
2023/06/02 06:41:42;;;;;;;45.58;5.90;;;;;;;;;;4839715;28;20115;-68
2023/06/02 06:44:07;;;;;;;21.30;2.60;;;;;;;;;;4872960;28;20033;-68
2023/06/02 06:46:33;;;;;;;21.80;3.17;;;;;;;;;;4874512;28;20045;-68
2023/06/02 06:48:58;;;;;;;16.95;3.10;;;;;;;;;;4845416;28;20637;-67
2023/06/02 06:51:23;;;;;;;13.13;2.58;;;;;;;;;;4832401;28;20037;-68
2023/06/02 06:53:49;;;;;;;16.42;3.08;;;;;;;;;;4872385;28;20044;-67
2023/06/02 06:56:14;;;;;;;12.02;2.88;;;;;;;;;;4841613;28;20108;-73
2023/06/02 06:58:39;;;;;;;14.85;2.78;;;;;;;;;;4850104;28;20060;-71
2023/06/02 07:01:05;;;;;;;16.65;3.20;;;;;;;;;;4896991;28;20515;-70
2023/06/02 07:03:32;;;;;;;18.83;3.47;;;;;;;;;;4884575;28;20048;-67
2023/06/02 07:05:58;;;;;;;11.20;2.60;;;;;;;;;;4847771;28;20823;-68
2023/06/02 07:08:26;;;;;;;17.08;3.55;;;;;;;;;;4847587;28;20052;-66
2023/06/02 07:10:51;;;;;;;17.58;3.78;;;;;;;;;;4909144;28;20045;-66
2023/06/02 07:13:18;;;;;;;19.17;3.50;;;;;;;;;;4847240;28;20115;-66
2023/06/02 07:15:43;;;;;;;14.57;3.10;;;;;;;;;;4923235;28;20653;-66
2023/06/02 07:18:09;;;;;;;17.67;3.15;;;;;;;;;;4869139;28;20107;-66
2023/06/02 07:20:36;;;;;;;18.33;2.97;;;;;;;;;;4867111;28;20052;-64
2023/06/02 07:23:02;;;;;;;16.23;3.13;;;;;;;;;;4845500;28;20045;-66
2023/06/02 07:25:31;;;;;;;15.98;3.20;;;;;;;;;;4871443;28;20041;-67
2023/06/02 07:27:57;;;;;;;18.73;3.45;;;;;;;;;;4861150;28;20047;-64
2023/06/02 07:30:22;;;;;;;13.55;2.80;;;;;;;;;;4846740;28;20042;-67
2023/06/02 07:32:47;;;;;;;13.23;2.75;;;;;;;;;;4835650;28;20037;-66
2023/06/02 07:35:15;;;;;;;13.65;2.63;;;;;;;;;;4845740;28;20192;-64
2023/06/02 07:37:41;;;;;;;14.23;3.33;;;;;;;;;;4852043;28;20120;-65
2023/06/02 07:40:06;;;;;;;17.13;3.30;;;;;;;;;;4831846;28;20074;-65
2023/06/02 07:42:32;;;;;;;16.60;2.88;;;;;;;;;;4846408;28;20034;-65
2023/06/02 07:44:57;;;;;;;16.20;3.35;;;;;;;;;;4921770;28;20034;-66
2023/06/02 07:47:22;;;;;;;12.10;2.95;;;;;;;;;;4841695;28;20037;-65
2023/06/02 07:49:48;;;;;;;13.90;3.15;;;;;;;;;;4903089;28;20048;-65
2023/06/02 07:52:13;;;;;;;20.83;3.17;;;;;;;;;;4841223;28;20038;-65
2023/06/02 07:54:38;;;;;;;14.27;3.10;;;;;;;;;;4850360;28;20037;-65
2023/06/02 07:57:04;;;;;;;9.75;2.90;;;;;;;;;;4857139;28;20154;-65
2023/06/02 07:59:29;;;;;;;18.48;2.95;;;;;;;;;;4843997;28;21027;-66
2023/06/02 08:01:54;;;;;;;15.60;3.20;;;;;;;;;;4845214;28;20288;-68
2023/06/02 08:04:25;;;;;;;16.67;2.78;;;;;;;;;;4837735;28;20041;-65
2023/06/02 08:06:55;;;;;;;15.18;2.92;;;;;;;;;;4907918;28;20114;-65
2023/06/02 08:09:21;;;;;;;15.43;3.83;;;;;;;;;;4847251;28;20045;-66
2023/06/02 08:11:47;;;;;;;19.45;3.15;;;;;;;;;;4847010;28;20491;-65
2023/06/02 08:14:14;;;;;;;16.92;3.40;;;;;;;;;;4869082;28;20052;-66
2023/06/02 08:16:41;;;;;;;19.73;3.28;;;;;;;;;;4866253;28;20037;-65
2023/06/02 08:19:06;;;;;;;15.30;3.00;;;;;;;;;;4863503;28;20056;-67
2023/06/02 08:21:32;;;;;;;16.40;3.28;;;;;;;;;;4924633;28;20059;-68
2023/06/02 08:23:58;;;;;;;15.15;2.78;;;;;;;;;;4876573;28;20041;-67
2023/06/02 08:26:23;;;;;;;16.52;3.33;;;;;;;;;;4879288;28;20044;-68
2023/06/02 08:28:49;;;;;;;18.55;2.90;;;;;;;;;;4862010;28;20152;-67
2023/06/02 08:31:17;;;;;;;14.60;3.00;;;;;;;;;;4864805;28;20041;-66
2023/06/02 08:33:43;;;;;;;14.75;3.17;;;;;;;;;;4863018;28;20045;-67
2023/06/02 08:36:08;;;;;;;20.85;3.45;;;;;;;;;;4865639;28;20091;-68
2023/06/02 08:38:37;;;;;;;15.43;3.17;;;;;;;;;;4879533;28;20677;-68
2023/06/02 08:41:04;;;;;;;11.35;3.08;;;;;;;;;;4861924;28;20037;-65
2023/06/02 08:43:29;;;;;;;14.95;2.95;;;;;;;;;;4863414;28;20036;-67
2023/06/02 08:46:00;;;;;;;15.75;2.72;;;;;;;;;;4864414;28;20108;-66
2023/06/02 08:48:26;;;;;;;12.98;3.10;;;;;;;;;;4861476;28;20041;-68
2023/06/02 08:50:58;;;;;;;13.23;2.83;;;;;;;;;;4861565;28;20036;-67
2023/06/02 08:53:23;;;;;;;16.20;3.28;;;;;;;;;;4860130;28;20041;-68
2023/06/02 08:55:49;;;;;;;13.70;2.85;;;;;;;;;;4875345;28;20052;-66
2023/06/02 08:58:14;;;;;;;22.63;3.40;;;;;;;;;;4861619;28;20052;-67
2023/06/02 09:00:43;;;;;;;22.67;3.47;;;;;;;;;;4862044;28;20405;-66
2023/06/02 09:03:13;;;;;;;15.05;3.03;;;;;;;;;;4859165;28;20099;-66
2023/06/02 09:05:38;;;;;;;14.10;2.78;;;;;;;;;;4875156;28;20147;-64
2023/06/02 09:08:08;;;;;;;15.00;2.80;;;;;;;;;;4857558;28;20037;-66
2023/06/02 09:10:39;;;;;;;13.77;3.13;;;;;;;;;;4843948;28;20048;-65
2023/06/02 09:13:05;;;;;;;12.68;3.15;;;;;;;;;;4860533;28;20398;-65
2023/06/02 09:15:31;;;;;;;17.25;3.20;;;;;;;;;;4860525;28;20079;-66
2023/06/02 09:18:10;;;;;;;13.23;2.92;;;;;;;;;;4874367;28;20060;-65
2023/06/02 09:20:38;;;;;;;12.60;3.25;;;;;;;;;;4862391;28;20041;-66
2023/06/02 09:23:03;;;;;;;13.50;2.90;;;;;;;;;;4863134;28;22467;-66
2023/06/02 09:25:29;;;;;;;19.85;3.58;;;;;;;;;;4878893;28;20038;-66
2023/06/02 09:27:58;;;;;;;16.58;3.30;;;;;;;;;;4861438;28;20044;-66
2023/06/02 09:30:24;;;;;;;16.42;3.10;;;;;;;;;;4863793;28;20036;-66
2023/06/02 09:32:54;;;;;;;17.45;3.58;;;;;;;;;;4865164;28;20040;-65
2023/06/02 09:35:33;;;;;;;17.80;3.22;;;;;;;;;;4864067;28;20045;-66
2023/06/02 09:38:01;;;;;;;17.48;3.38;;;;;;;;;;4879295;28;20051;-66
2023/06/02 09:40:30;;;;;;;18.65;4.00;;;;;;;;;;4862408;29;20127;-65
2023/06/02 09:42:55;;;;;;;19.98;3.58;;;;;;;;;;4864869;28;20036;-66
2023/06/02 09:45:20;;;;;;;13.65;3.20;;;;;;;;;;4863881;28;20044;-66
2023/06/02 09:47:47;;;;;;;17.67;4.28;;;;;;;;;;4863667;28;20033;-67
2023/06/02 09:50:35;;;;;;;16.42;3.30;;;;;;;;;;4863907;28;20037;-67
2023/06/02 09:53:03;;;;;;;15.48;3.15;;;;;;;;;;4862845;28;20068;-66
2023/06/02 09:55:28;;;;;;;14.18;3.35;;;;;;;;;;4864794;28;20037;-66
2023/06/02 09:57:54;;;;;;;12.82;3.13;;;;;;;;;;4863448;28;20083;-65
2023/06/02 10:00:20;;;;;;;17.52;3.50;;;;;;;;;;4866461;28;20044;-65
2023/06/02 10:02:46;;;;;;;20.20;3.35;;;;;;;;;;4865181;28;20091;-66
2023/06/02 10:05:15;;;;;;;17.30;3.70;;;;;;;;;;4878266;28;20056;-66
2023/06/02 10:07:43;;;;;;;16.10;3.45;;;;;;;;;;4879884;28;20505;-65
2023/06/02 10:10:27;;;;;;;14.75;3.35;;;;;;;;;;4881472;28;20052;-66
2023/06/02 10:13:08;;;;;;;18.08;3.75;;;;;;;;;;4879000;28;22343;-66
2023/06/02 10:15:51;;;;;;;18.80;3.65;;;;;;;;;;4879163;28;20044;-66
2023/06/02 10:18:32;;;;;;;15.25;3.33;;;;;;;;;;4880688;28;20506;-67
2023/06/02 10:21:15;;;;;;;22.17;4.10;;;;;;;;;;4879965;28;20453;-67
2023/06/02 10:23:47;;;;;;;13.75;3.45;;;;;;;;;;4881852;29;20036;-67
2023/06/02 10:26:27;;;;;;;15.77;3.97;;;;;;;;;;4863449;28;20045;-67
2023/06/02 10:28:56;;;;;;;17.80;3.83;;;;;;;;;;4867233;28;21946;-67
2023/06/02 10:31:28;;;;;;;13.63;3.40;;;;;;;;;;4929042;28;20047;-67
2023/06/02 10:33:58;;;;;;;17.50;3.85;;;;;;;;;;4861809;28;20043;-67
2023/06/02 10:36:24;;;;;;;18.90;4.07;;;;;;;;;;4861909;28;20466;-66
2023/06/02 10:38:50;;;;;;;14.50;3.65;;;;;;;;;;4863278;29;20064;-67
2023/06/02 10:41:21;;;;;;;16.85;3.88;;;;;;;;;;4862243;28;21034;-67
2023/06/02 10:44:05;;;;;;;16.55;4.07;;;;;;;;;;4859319;28;20045;-67
2023/06/02 10:46:30;;;;;;;22.45;4.35;;;;;;;;;;4843478;28;20048;-67
2023/06/02 10:48:55;;;;;;;16.58;3.88;;;;;;;;;;4878484;28;20032;-67
2023/06/02 10:51:21;;;;;;;18.30;4.47;;;;;;;;;;4860014;28;20032;-67
2023/06/02 10:53:58;;;;;;;16.92;4.50;;;;;;;;;;4861259;28;20041;-66
2023/06/02 10:56:36;;;;;;;14.30;4.22;;;;;;;;;;4858720;28;20033;-66
2023/06/02 10:59:04;;;;;;;17.15;3.63;;;;;;;;;;4876250;28;20241;-66
2023/06/02 11:01:48;;;;;;;18.70;3.90;;;;;;;;;;4858318;28;20040;-67
2023/06/02 11:04:29;;;;;;;22.20;4.15;;;;;;;;;;4861084;28;22562;-66
2023/06/02 11:07:12;;;;;;;24.02;5.28;;;;;;;;;;4862929;28;20465;-67
2023/06/02 11:09:42;;;;;;;16.83;3.63;;;;;;;;;;4860266;28;20041;-66
2023/06/02 11:12:08;;;;;;;20.50;4.00;;;;;;;;;;4859971;28;20041;-67
2023/06/02 11:14:53;;;;;;;16.85;4.43;;;;;;;;;;4862114;28;20806;-65
2023/06/02 11:17:32;;;;;;;20.17;4.15;;;;;;;;;;4841096;28;22237;-66
2023/06/02 11:19:57;;;;;;;18.48;4.32;;;;;;;;;;4879337;28;20045;-66
2023/06/02 11:22:23;;;;;;;15.85;4.15;;;;;;;;;;4860195;28;20044;-67
2023/06/02 11:24:50;;;;;;;17.20;4.40;;;;;;;;;;4861774;28;20130;-67
2023/06/02 11:27:15;;;;;;;22.20;4.20;;;;;;;;;;4861874;28;20858;-67
2023/06/02 11:29:44;;;;;;;17.90;4.20;;;;;;;;;;4861040;28;20044;-67
2023/06/02 11:32:09;;;;;;;18.45;4.32;;;;;;;;;;4863921;28;20033;-67
2023/06/02 11:34:34;;;;;;;19.65;4.25;;;;;;;;;;4863257;28;20043;-66
2023/06/02 11:37:16;;;;;;;16.83;4.20;;;;;;;;;;4878336;28;20390;-66
2023/06/02 11:39:53;;;;;;;24.20;4.32;;;;;;;;;;4861400;28;20063;-66
2023/06/02 11:42:19;;;;;;;20.55;4.63;;;;;;;;;;4876969;28;20496;-67
2023/06/02 11:44:48;;;;;;;18.10;4.30;;;;;;;;;;4864381;28;20041;-68
2023/06/02 11:47:16;;;;;;;14.93;4.18;;;;;;;;;;4862226;28;20084;-68
2023/06/02 11:49:42;;;;;;;17.88;4.47;;;;;;;;;;4861889;28;20221;-68
2023/06/02 11:52:09;;;;;;;16.10;3.80;;;;;;;;;;4858082;28;21356;-68
2023/06/02 11:54:49;;;;;;;14.27;4.07;;;;;;;;;;4872696;28;20052;-68
2023/06/02 11:57:24;;;;;;;17.30;4.20;;;;;;;;;;4874189;28;20068;-68
2023/06/02 12:00:00;;;;;;;18.55;4.53;;;;;;;;;;4861357;28;20504;-68
2023/06/02 12:02:26;;;;;;;54.58;5.50;;;;;;;;;;4859926;28;20041;-69
2023/06/02 12:04:51;;;;;;;15.63;4.50;;;;;;;;;;4860640;28;20091;-68
2023/06/02 12:07:16;;;;;;;18.90;4.20;;;;;;;;;;4859518;28;20036;-67
2023/06/02 12:09:47;;;;;;;17.10;4.47;;;;;;;;;;4861710;28;20414;-68
2023/06/02 12:12:12;;;;;;;19.25;4.38;;;;;;;;;;4861440;28;20468;-67
2023/06/02 12:14:38;;;;;;;20.88;4.72;;;;;;;;;;4921475;28;20362;-68
2023/06/02 12:17:04;;;;;;;19.15;4.47;;;;;;;;;;4875168;28;20099;-66
2023/06/02 12:19:30;;;;;;;17.30;4.75;;;;;;;;;;4860756;28;20119;-66
2023/06/02 12:22:05;;;;;;;17.98;4.50;;;;;;;;;;4862157;28;20049;-66
2023/06/02 12:24:33;;;;;;;16.80;4.57;;;;;;;;;;4859905;28;20039;-66
2023/06/02 12:26:59;;;;;;;18.02;4.72;;;;;;;;;;4859302;28;20037;-68
2023/06/02 12:29:24;;;;;;;18.75;4.13;;;;;;;;;;4859485;28;20102;-68
2023/06/02 12:32:00;;;;;;;13.60;4.57;;;;;;;;;;4860277;28;20045;-66
2023/06/02 12:34:26;;;;;;;15.52;4.68;;;;;;;;;;4861396;28;20036;-69
2023/06/02 12:36:51;;;;;;;18.98;4.72;;;;;;;;;;4862751;28;22293;-66
2023/06/02 12:39:17;;;;;;;18.35;4.93;;;;;;;;;;4864086;28;20048;-66
2023/06/02 12:41:42;;;;;;;17.30;4.65;;;;;;;;;;4865951;28;22291;-66
2023/06/02 12:44:07;;;;;;;13.75;4.00;;;;;;;;;;4865306;28;20036;-67
2023/06/02 12:46:33;;;;;;;13.48;3.40;;;;;;;;;;4881341;28;20044;-66
2023/06/02 12:49:03;;;;;;;22.55;3.90;;;;;;;;;;4863411;28;20187;-66
2023/06/02 12:51:31;;;;;;;18.25;3.83;;;;;;;;;;4879101;28;20041;-70
2023/06/02 12:53:59;;;;;;;19.38;4.05;;;;;;;;;;4863857;28;20048;-67
2023/06/02 12:56:27;;;;;;;23.45;4.05;;;;;;;;;;4874198;28;20536;-66
2023/06/02 12:58:55;;;;;;;23.55;3.72;;;;;;;;;;4927535;28;20049;-66
2023/06/02 13:01:23;;;;;;;27.00;4.40;;;;;;;;;;4864216;28;20545;-66
2023/06/02 13:03:52;;;;;;;24.67;4.60;;;;;;;;;;4862567;28;20040;-65
2023/06/02 13:06:18;;;;;;;29.05;4.65;;;;;;;;;;4870766;28;20044;-65
2023/06/02 13:08:44;;;;;;;31.02;5.18;;;;;;;;;;4864065;28;20043;-67
2023/06/02 13:11:09;;;;;;;35.42;5.28;;;;;;;;;;4861858;28;20533;-66
2023/06/02 13:13:37;;;;;;;31.67;5.30;;;;;;;;;;4863702;28;20482;-67
2023/06/02 13:16:02;;;;;;;32.10;5.20;;;;;;;;;;4859686;28;20296;-65
2023/06/02 13:18:29;;;;;;;35.88;5.50;;;;;;;;;;4864295;28;20699;-66
2023/06/02 13:20:57;;;;;;;32.40;5.72;;;;;;;;;;4876614;28;20044;-68
2023/06/02 13:23:22;;;;;;;37.17;5.63;;;;;;;;;;4877984;28;20043;-67
2023/06/02 13:25:49;;;;;;;38.80;5.50;;;;;;;;;;4875917;28;20033;-68
2023/06/02 13:28:16;;;;;;;31.15;5.10;;;;;;;;;;4859910;29;20045;-65
2023/06/02 13:30:42;;;;;;;26.58;5.18;;;;;;;;;;4860151;28;20115;-66
2023/06/02 13:33:07;;;;;;;30.70;4.70;;;;;;;;;;4861360;28;20041;-67
2023/06/02 13:35:33;;;;;;;25.17;5.20;;;;;;;;;;4862059;28;20037;-65
2023/06/02 13:37:58;;;;;;;33.60;5.80;;;;;;;;;;4861040;29;20092;-67
2023/06/02 13:40:27;;;;;;;33.17;5.78;;;;;;;;;;4862052;28;21945;-68
2023/06/02 13:42:54;;;;;;;31.38;5.53;;;;;;;;;;4866471;28;20086;-67
2023/06/02 13:45:20;;;;;;;26.98;4.70;;;;;;;;;;4862469;28;20738;-67
2023/06/02 13:47:45;;;;;;;31.95;5.57;;;;;;;;;;4860860;28;20120;-66
2023/06/02 13:50:10;;;;;;;31.05;5.85;;;;;;;;;;4858680;28;20041;-66
2023/06/02 13:52:38;;;;;;;30.77;5.40;;;;;;;;;;4877412;28;22356;-66
2023/06/02 13:55:03;;;;;;;33.42;6.20;;;;;;;;;;4859515;28;20208;-67
2023/06/02 13:57:29;;;;;;;35.03;5.38;;;;;;;;;;4860708;28;20083;-66
2023/06/02 13:59:56;;;;;;;28.48;5.30;;;;;;;;;;4858907;28;20044;-66
2023/06/02 14:02:22;;;;;;;31.23;5.75;;;;;;;;;;4875692;28;20095;-66
2023/06/02 14:04:48;;;;;;;32.53;5.55;;;;;;;;;;4864261;28;20045;-66
2023/06/02 14:07:13;;;;;;;31.40;5.15;;;;;;;;;;4859220;28;20051;-67
2023/06/02 14:09:40;;;;;;;31.48;5.82;;;;;;;;;;4857393;28;20593;-67
2023/06/02 14:12:06;;;;;;;31.63;5.50;;;;;;;;;;4860909;28;20383;-66
2023/06/02 14:14:31;;;;;;;31.63;5.38;;;;;;;;;;4857720;28;20785;-67
2023/06/02 14:16:56;;;;;;;29.90;5.07;;;;;;;;;;4859880;28;20079;-67
2023/06/02 14:19:22;;;;;;;27.15;5.22;;;;;;;;;;4876779;28;20529;-67
2023/06/02 14:21:47;;;;;;;32.10;5.88;;;;;;;;;;4862373;28;20186;-66
2023/06/02 14:24:12;;;;;;;29.30;5.22;;;;;;;;;;4859660;28;20051;-66
2023/06/02 14:26:37;;;;;;;33.70;5.95;;;;;;;;;;4859296;28;20045;-65
2023/06/02 14:29:03;;;;;;;28.35;4.90;;;;;;;;;;4875269;28;20087;-66
2023/06/02 14:31:28;;;;;;;33.05;5.28;;;;;;;;;;4861583;28;20041;-66